Terminal Aerodrome Forecast
Issued by NWS Billings, MT

Home | Current Version | Previous Version | Text Only | Print | Product List | Glossary On
Versions: 1 2 3 4 5 6 7 8 9 10 11 12 13 14 15 16 17 18 19 20 21 22 23 24
000
FTUS45 KBYZ 021731
TAFSHR
TAF
KSHR 021731Z 0218/0318 VRB04KT P6SM SCT150
     FM022100 33012KT P6SM SCT040
     FM030000 32020G30KT P6SM VCSH SCT020 BKN035
     FM030400 34020G35KT 1SM -SN BLSN SCT006 OVC012
     FM030900 31020G30KT 1SM -SN BLSN BKN006 OVC010
     FM031500 32015G20KT P6SM BKN010 OVC020=

USA.gov is the U.S. government's official web portal to all federal, state and local government web resources and services.